Time;durP1;ratioP1;P1;durP2;ratioP2;P2;SDS_P1;SDS_P2;PMS_P1;PMS_P2;Temp;Humidity;BMP_temperature;BMP_pressure;BME280_temperature;BME280_humidity;BME280_pressure;Samples;Min_cycle;Max_cycle;Signal;HPM_P1;HPM_P2
2023/06/03 00:01:04;;;;;;;22.20;9.38;;;;;;;12.67;100.00;101941.13;5053340;28;20029;-65
2023/06/03 00:03:32;;;;;;;22.70;9.95;;;;;;;12.64;100.00;101932.22;5053213;28;20035;-65
2023/06/03 00:05:58;;;;;;;23.52;9.95;;;;;;;12.58;100.00;101932.13;5053114;28;20058;-64
2023/06/03 00:08:24;;;;;;;23.05;10.32;;;;;;;12.44;100.00;101930.19;5053255;28;20068;-65
2023/06/03 00:10:50;;;;;;;22.65;9.68;;;;;;;12.34;100.00;101930.94;5051834;28;20455;-65
2023/06/03 00:13:16;;;;;;;22.02;10.07;;;;;;;12.28;100.00;101923.78;5052933;28;20041;-66
2023/06/03 00:15:41;;;;;;;22.23;9.85;;;;;;;12.32;100.00;101927.34;5053493;28;20017;-64
2023/06/03 00:18:07;;;;;;;22.35;10.32;;;;;;;12.23;100.00;101930.75;5053002;28;20025;-64
2023/06/03 00:20:36;;;;;;;22.60;9.95;;;;;;;12.20;100.00;101931.63;5052927;28;20112;-63
2023/06/03 00:23:05;;;;;;;22.58;10.07;;;;;;;12.14;100.00;101935.94;5053047;28;20557;-65
2023/06/03 00:25:34;;;;;;;24.40;10.38;;;;;;;12.24;100.00;101942.28;5052791;28;20435;-66
2023/06/03 00:28:00;;;;;;;21.70;9.95;;;;;;;12.20;100.00;101944.88;5052832;28;20025;-62
2023/06/03 00:30:26;;;;;;;21.77;9.95;;;;;;;12.13;100.00;101934.16;5052899;28;20459;-74
2023/06/03 00:32:51;;;;;;;22.27;9.68;;;;;;;12.15;100.00;101937.72;5052385;28;20056;-79
2023/06/03 00:35:17;;;;;;;22.58;10.32;;;;;;;12.13;100.00;101935.06;5052056;28;20052;-80
2023/06/03 00:37:42;;;;;;;23.48;10.00;;;;;;;12.00;100.00;101927.78;5053068;28;20029;-77
2023/06/03 00:40:08;;;;;;;22.65;9.82;;;;;;;11.93;100.00;101926.78;5052851;28;20055;-80
2023/06/03 00:42:33;;;;;;;22.88;10.10;;;;;;;11.92;100.00;101929.38;5052779;28;20076;-80
2023/06/03 00:44:59;;;;;;;23.33;10.30;;;;;;;11.90;100.00;101937.31;5052755;28;20017;-80
2023/06/03 00:47:24;;;;;;;22.40;9.98;;;;;;;11.80;100.00;101933.59;5052454;28;20074;-79
2023/06/03 00:49:50;;;;;;;24.20;10.35;;;;;;;11.77;100.00;101930.91;5052768;28;20392;-76
2023/06/03 00:52:17;;;;;;;22.80;9.90;;;;;;;11.82;100.00;101946.88;5052857;28;20064;-78
2023/06/03 00:54:43;;;;;;;22.23;10.38;;;;;;;11.77;100.00;101937.97;5052480;28;20475;-79
2023/06/03 00:57:10;;;;;;;22.85;9.82;;;;;;;11.74;100.00;101935.28;5052398;28;20029;-77
2023/06/03 00:59:35;;;;;;;23.42;9.68;;;;;;;11.79;100.00;101934.47;5052559;28;20594;-78
2023/06/03 01:02:00;;;;;;;24.27;10.07;;;;;;;11.76;100.00;101939.72;5051095;28;20029;-79
2023/06/03 01:04:26;;;;;;;23.25;10.13;;;;;;;11.68;100.00;101936.06;5052988;28;20025;-77
2023/06/03 01:06:52;;;;;;;21.92;10.07;;;;;;;11.65;100.00;101934.25;5052440;28;20025;-75
2023/06/03 01:09:35;;;;;;;24.48;10.38;;;;;;;11.67;100.00;101928.97;5052311;28;20033;-76
2023/06/03 01:12:15;;;;;;;23.80;10.18;;;;;;;11.68;100.00;101936.06;5049659;28;20025;-78
2023/06/03 01:14:49;;;;;;;23.23;10.10;;;;;;;11.61;100.00;101934.19;5052719;28;20419;-73
2023/06/03 01:17:18;;;;;;;22.38;10.07;;;;;;;11.60;100.00;101935.03;5052374;28;20024;-73
2023/06/03 01:19:50;;;;;;;22.42;10.00;;;;;;;11.52;100.00;101935.78;5052363;28;20087;-70
2023/06/03 01:22:26;;;;;;;22.85;9.93;;;;;;;11.48;100.00;101936.59;5052264;28;20579;-77
2023/06/03 01:25:06;;;;;;;23.48;9.98;;;;;;;11.34;100.00;101936.34;5052264;28;20021;-73
2023/06/03 01:27:31;;;;;;;22.80;10.05;;;;;;;11.27;100.00;101944.13;5049772;28;20048;-76
2023/06/03 01:29:57;;;;;;;22.02;10.02;;;;;;;11.16;100.00;101941.28;5052344;28;20025;-72
2023/06/03 01:32:22;;;;;;;22.73;10.20;;;;;;;11.13;100.00;101938.59;5050534;28;20091;-79
2023/06/03 01:34:49;;;;;;;22.58;9.98;;;;;;;11.09;100.00;101937.63;5052357;28;20029;-66
2023/06/03 01:37:15;;;;;;;23.45;10.70;;;;;;;11.20;100.00;101936.94;5052552;28;20384;-67
2023/06/03 01:39:42;;;;;;;22.70;9.85;;;;;;;11.25;100.00;101937.94;5052055;28;20021;-65
2023/06/03 01:42:11;;;;;;;22.85;10.13;;;;;;;11.24;100.00;101936.13;5051020;28;20040;-66
2023/06/03 01:44:37;;;;;;;22.80;9.80;;;;;;;11.14;100.00;101935.09;5052283;28;20033;-65
2023/06/03 01:47:04;;;;;;;23.30;10.43;;;;;;;11.16;100.00;101933.34;5055611;28;20032;-62
2023/06/03 01:49:31;;;;;;;24.02;10.00;;;;;;;11.14;100.00;101935.09;5055733;28;20434;-66
2023/06/03 01:52:01;;;;;;;23.23;10.70;;;;;;;11.12;100.00;101940.31;5055737;28;20031;-66
2023/06/03 01:54:27;;;;;;;25.50;10.48;;;;;;;11.06;100.00;101934.91;5054412;28;20036;-68
2023/06/03 01:56:53;;;;;;;22.73;10.45;;;;;;;11.08;100.00;101943.81;5055633;28;20472;-66
2023/06/03 01:59:24;;;;;;;22.77;10.43;;;;;;;10.93;100.00;101939.06;5056000;28;20428;-65
2023/06/03 02:01:53;;;;;;;23.08;10.43;;;;;;;10.91;100.00;101934.63;5055790;28;20380;-65
2023/06/03 02:04:18;;;;;;;22.92;10.23;;;;;;;10.90;100.00;101938.13;5055766;28;20029;-65
2023/06/03 02:06:51;;;;;;;23.88;10.18;;;;;;;10.82;100.00;101941.50;5055634;28;20360;-65
2023/06/03 02:09:27;;;;;;;23.27;10.25;;;;;;;10.80;100.00;101940.59;5055848;28;20029;-65
2023/06/03 02:11:53;;;;;;;24.88;10.60;;;;;;;10.81;100.00;101934.44;5051626;28;20048;-65
2023/06/03 02:14:18;;;;;;;22.88;10.27;;;;;;;10.95;100.00;101928.53;5055293;28;20129;-65
2023/06/03 02:16:44;;;;;;;23.88;10.27;;;;;;;10.99;100.00;101933.00;5055745;28;20464;-68
2023/06/03 02:19:17;;;;;;;22.15;9.60;;;;;;;11.08;100.00;101943.81;5055165;28;20498;-73
2023/06/03 02:21:43;;;;;;;21.55;9.85;;;;;;;11.09;100.00;101936.75;5055142;28;20063;-73
2023/06/03 02:24:09;;;;;;;23.02;10.18;;;;;;;11.07;100.00;101934.06;5055551;28;20078;-68
2023/06/03 02:26:36;;;;;;;22.95;10.00;;;;;;;11.12;100.00;101932.38;5054916;28;20032;-67
2023/06/03 02:29:02;;;;;;;22.83;9.70;;;;;;;11.10;100.00;101936.78;5055107;28;20388;-62
2023/06/03 02:31:29;;;;;;;21.65;9.35;;;;;;;11.09;100.00;101928.81;5055044;28;20163;-63
2023/06/03 02:33:54;;;;;;;22.40;9.48;;;;;;;11.05;100.00;101927.84;5053441;28;20053;-62
2023/06/03 02:36:20;;;;;;;21.23;9.27;;;;;;;11.02;100.00;101933.06;5055089;28;20029;-66
2023/06/03 02:38:47;;;;;;;22.90;9.65;;;;;;;11.04;100.00;101931.38;5054934;28;20029;-63
2023/06/03 02:41:15;;;;;;;21.67;9.60;;;;;;;10.99;100.00;101930.38;5054740;28;20029;-62
2023/06/03 02:43:41;;;;;;;21.95;9.50;;;;;;;11.02;100.00;101934.84;5054700;28;20036;-63
2023/06/03 02:46:07;;;;;;;23.42;9.88;;;;;;;10.95;100.00;101936.44;5055338;28;20029;-62
2023/06/03 02:48:32;;;;;;;21.42;9.27;;;;;;;10.95;100.00;101936.44;5054519;28;20040;-62
2023/06/03 02:50:58;;;;;;;22.88;9.70;;;;;;;10.92;100.00;101941.69;5054444;28;20041;-72
2023/06/03 02:53:23;;;;;;;22.17;9.95;;;;;;;10.85;100.00;101930.09;5054665;28;20041;-67
2023/06/03 02:55:49;;;;;;;22.52;10.40;;;;;;;10.82;100.00;101936.22;5053255;28;20091;-62
2023/06/03 02:58:15;;;;;;;22.45;9.85;;;;;;;10.77;100.00;101932.56;5053855;28;20025;-63
2023/06/03 03:00:42;;;;;;;23.13;10.02;;;;;;;10.78;100.00;101934.38;5054584;28;20086;-62
2023/06/03 03:03:09;;;;;;;22.58;9.88;;;;;;;10.72;100.00;101931.59;5054296;28;20024;-64
2023/06/03 03:05:35;;;;;;;22.67;9.88;;;;;;;10.69;100.00;101931.53;5054265;28;20033;-62
2023/06/03 03:08:01;;;;;;;22.15;9.65;;;;;;;10.69;100.00;101934.19;5054706;28;20029;-62
2023/06/03 03:10:26;;;;;;;21.85;9.70;;;;;;;10.67;100.00;101933.25;5054445;28;20035;-64
2023/06/03 03:12:52;;;;;;;21.80;9.68;;;;;;;10.66;100.00;101925.28;5050065;28;20025;-68
2023/06/03 03:15:17;;;;;;;23.25;9.90;;;;;;;10.64;100.00;101936.75;5054530;28;20036;-66
2023/06/03 03:17:43;;;;;;;21.92;9.77;;;;;;;10.63;100.00;101934.06;5054033;28;20029;-64
2023/06/03 03:20:09;;;;;;;22.95;10.68;;;;;;;10.61;100.00;101941.06;5054217;28;20376;-64
2023/06/03 03:22:34;;;;;;;22.52;10.20;;;;;;;10.59;100.00;101934.84;5054304;28;20104;-64
2023/06/03 03:25:00;;;;;;;24.27;10.38;;;;;;;10.56;100.00;101937.44;5053942;28;20056;-64
2023/06/03 03:27:25;;;;;;;23.13;10.50;;;;;;;10.57;100.00;101942.75;5054024;28;20029;-70
2023/06/03 03:29:55;;;;;;;23.02;10.05;;;;;;;10.53;100.00;101945.25;5053819;28;20033;-64
2023/06/03 03:32:20;;;;;;;24.25;10.32;;;;;;;10.51;100.00;101941.72;5052256;28;20072;-65
2023/06/03 03:35:00;;;;;;;22.25;10.13;;;;;;;10.43;100.00;101945.06;5053859;28;20487;-64
2023/06/03 03:37:25;;;;;;;22.63;10.00;;;;;;;10.43;100.00;101937.16;5050428;28;20067;-64
2023/06/03 03:39:51;;;;;;;22.95;10.13;;;;;;;10.45;100.00;101948.63;5053626;28;20025;-64
2023/06/03 03:42:16;;;;;;;23.15;10.25;;;;;;;10.44;100.00;101941.59;5053573;28;20067;-66
2023/06/03 03:44:41;;;;;;;22.45;10.30;;;;;;;10.43;100.00;101945.06;5053860;28;20375;-64
2023/06/03 03:47:07;;;;;;;23.98;10.70;;;;;;;10.45;100.00;101946.00;5053485;28;20024;-64
2023/06/03 03:49:35;;;;;;;22.35;10.40;;;;;;;10.45;100.00;101946.00;5053452;28;20065;-66
2023/06/03 03:52:05;;;;;;;22.08;10.07;;;;;;;10.45;100.00;101946.00;5053480;28;20029;-65
2023/06/03 03:54:30;;;;;;;21.80;9.77;;;;;;;10.45;100.00;101947.75;5053453;28;20131;-71
2023/06/03 03:56:56;;;;;;;22.10;9.93;;;;;;;10.45;100.00;101943.34;5053387;28;20100;-72
2023/06/03 03:59:26;;;;;;;21.13;9.77;;;;;;;10.43;100.00;101938.91;5053504;28;20033;-80
2023/06/03 04:01:52;;;;;;;22.38;9.90;;;;;;;10.43;100.00;101957.41;5053215;28;20025;-76
2023/06/03 04:04:38;;;;;;;21.70;9.57;;;;;;;10.49;100.00;101951.38;5053096;28;20365;-70
2023/06/03 04:07:04;;;;;;;22.05;9.93;;;;;;;10.46;100.00;101950.44;5050655;28;20099;-75
2023/06/03 04:09:29;;;;;;;22.15;9.75;;;;;;;10.50;100.00;101954.06;5052484;28;20028;-72
2023/06/03 04:11:55;;;;;;;22.88;9.77;;;;;;;10.55;100.00;101947.09;5053002;28;20025;-79
2023/06/03 04:14:44;;;;;;;22.27;9.65;;;;;;;10.59;100.00;101943.66;5052956;28;20079;-75
2023/06/03 04:17:12;;;;;;;23.45;9.50;;;;;;;10.63;100.00;101944.63;5051191;28;20060;-78
2023/06/03 04:19:37;;;;;;;21.30;9.40;;;;;;;10.67;100.00;101951.75;5053078;28;20051;-77
2023/06/03 04:22:05;;;;;;;22.27;9.63;;;;;;;10.77;100.00;101959.03;5052875;28;20484;-72
2023/06/03 04:24:33;;;;;;;25.77;12.15;;;;;;;10.76;100.00;101957.25;5053098;28;20044;-73
2023/06/03 04:26:59;;;;;;;21.98;9.18;;;;;;;10.79;100.00;101957.31;5053327;28;20099;-71
2023/06/03 04:29:25;;;;;;;22.63;9.40;;;;;;;10.80;100.00;101958.19;5052797;28;20515;-73
2023/06/03 04:31:50;;;;;;;21.85;8.98;;;;;;;10.86;100.00;101960.97;5051143;28;20499;-77
2023/06/03 04:34:16;;;;;;;21.35;8.70;;;;;;;10.88;100.00;101961.00;5052978;28;20033;-76
2023/06/03 04:36:41;;;;;;;21.85;8.82;;;;;;;10.90;100.00;101961.94;5052626;28;20419;-76
2023/06/03 04:39:08;;;;;;;21.40;8.35;;;;;;;10.96;100.00;101960.28;5052708;28;20057;-71
2023/06/03 04:41:37;;;;;;;20.05;8.35;;;;;;;10.98;100.00;101961.25;5052696;28;20041;-73
2023/06/03 04:44:05;;;;;;;19.92;8.52;;;;;;;11.05;100.00;101964.88;5052581;28;20030;-64
2023/06/03 04:46:31;;;;;;;21.38;8.55;;;;;;;11.06;100.00;101968.44;5052491;28;20033;-71
2023/06/03 04:48:58;;;;;;;20.30;8.50;;;;;;;11.10;100.00;101965.88;5052745;28;20037;-72
2023/06/03 04:51:27;;;;;;;20.98;8.50;;;;;;;11.14;100.00;101962.44;5048410;28;20036;-64
2023/06/03 04:53:56;;;;;;;20.35;8.45;;;;;;;11.20;100.00;101963.41;5052410;28;20021;-64
2023/06/03 04:56:25;;;;;;;21.10;8.20;;;;;;;11.25;100.00;101961.75;5052642;28;20037;-72
2023/06/03 04:58:55;;;;;;;20.13;7.78;;;;;;;11.33;100.00;101970.75;5052586;28;20033;-66
2023/06/03 05:01:24;;;;;;;21.05;8.20;;;;;;;11.32;100.00;101968.94;5052398;28;20029;-71
2023/06/03 05:03:51;;;;;;;22.10;8.68;;;;;;;11.38;100.00;101968.19;5052370;28;20112;-71
2023/06/03 05:06:17;;;;;;;20.85;8.15;;;;;;;11.43;100.00;101978.00;5052399;28;20033;-67
2023/06/03 05:08:42;;;;;;;19.83;8.10;;;;;;;11.45;100.00;101970.97;5052385;28;20071;-71
2023/06/03 05:11:08;;;;;;;22.55;8.18;;;;;;;11.49;100.00;101972.81;5052233;28;20392;-73
2023/06/03 05:13:34;;;;;;;19.95;8.00;;;;;;;11.54;100.00;101967.59;5052485;28;20043;-77
2023/06/03 05:16:00;;;;;;;20.98;8.52;;;;;;;11.58;100.00;101976.50;5052278;28;20029;-73
2023/06/03 05:18:26;;;;;;;19.95;7.70;;;;;;;11.66;100.00;101965.19;5052149;28;20032;-72
2023/06/03 05:20:51;;;;;;;20.33;7.97;;;;;;;11.74;100.00;101962.66;5054514;28;20021;-68
2023/06/03 05:23:16;;;;;;;19.88;7.80;;;;;;;11.79;100.00;101974.19;5056081;28;20055;-67
2023/06/03 05:25:42;;;;;;;20.58;7.82;;;;;;;11.81;100.00;101972.50;5056386;28;20029;-66
2023/06/03 05:28:07;;;;;;;20.10;7.30;;;;;;;11.89;100.00;101967.31;5056036;28;20037;-66
2023/06/03 05:30:33;;;;;;;20.23;7.68;;;;;;;11.98;100.00;101964.84;5056285;28;20029;-66
2023/06/03 05:32:58;;;;;;;21.48;7.60;;;;;;;12.05;100.00;101967.63;5056083;28;20136;-68
2023/06/03 05:35:23;;;;;;;19.85;7.43;;;;;;;12.07;100.00;101966.75;5051949;28;20546;-65
2023/06/03 05:37:48;;;;;;;21.48;7.55;;;;;;;12.10;100.00;101973.84;5055826;28;20033;-64
2023/06/03 05:40:14;;;;;;;20.48;7.70;;;;;;;12.10;100.00;101972.13;5054822;28;20021;-65
2023/06/03 05:42:39;;;;;;;20.10;7.70;;;;;;;12.19;100.00;101969.59;5055821;28;20141;-64
2023/06/03 05:45:06;;;;;;;19.58;7.53;;;;;;;12.27;100.00;101975.00;5055864;28;20087;-64
2023/06/03 05:47:31;;;;;;;19.73;7.65;;;;;;;12.30;100.00;101959.16;5055913;28;20033;-64
2023/06/03 05:49:56;;;;;;;20.90;7.55;;;;;;;12.32;100.00;101973.34;5056019;28;20098;-64
2023/06/03 05:52:22;;;;;;;20.80;7.20;;;;;;;12.46;100.00;101960.25;5055560;28;20043;-65
2023/06/03 05:54:47;;;;;;;19.17;7.00;;;;;;;12.50;100.00;101967.41;5054672;28;20104;-67
2023/06/03 05:57:12;;;;;;;19.65;6.88;;;;;;;12.54;100.00;101966.59;5055608;28;20029;-66
2023/06/03 05:59:38;;;;;;;18.20;6.22;;;;;;;12.59;100.00;101968.41;5056004;28;20056;-66
2023/06/03 06:02:03;;;;;;;19.30;6.90;;;;;;;12.62;100.00;101971.09;5055534;28;20082;-67
2023/06/03 06:04:29;;;;;;;19.88;6.72;;;;;;;12.72;100.00;101973.00;5055723;28;20051;-65
2023/06/03 06:06:54;;;;;;;19.75;7.10;;;;;;;12.74;100.00;101976.56;5055927;28;20364;-66
2023/06/03 06:09:20;;;;;;;21.42;7.35;;;;;;;12.80;100.00;101976.66;5055613;28;20029;-67
2023/06/03 06:11:45;;;;;;;19.38;7.25;;;;;;;12.86;100.00;101975.84;5055587;28;20029;-67
2023/06/03 06:14:11;;;;;;;18.27;6.78;;;;;;;12.90;100.00;101967.03;5055412;28;20434;-70
2023/06/03 06:16:37;;;;;;;20.33;7.18;;;;;;;12.98;100.00;101975.13;5055506;28;20025;-68
2023/06/03 06:19:02;;;;;;;18.92;6.80;;;;;;;13.05;100.00;101971.66;5055230;28;20120;-64
2023/06/03 06:21:28;;;;;;;18.40;6.47;;;;;;;13.15;100.00;101977.94;5055297;28;20116;-67
2023/06/03 06:23:53;;;;;;;18.35;6.45;;;;;;;13.18;100.00;101973.59;5054188;28;20387;-64
2023/06/03 06:26:19;;;;;;;18.88;6.50;;;;;;;13.27;100.00;101986.06;5055365;28;20064;-67
2023/06/03 06:28:45;;;;;;;17.27;6.03;;;;;;;13.36;100.00;101977.34;5055046;28;20028;-68
2023/06/03 06:31:11;;;;;;;18.80;5.95;;;;;;;13.41;100.00;101984.50;5054521;28;20529;-69
2023/06/03 06:33:36;;;;;;;18.98;6.03;;;;;;;13.49;100.00;101987.22;5054130;28;20073;-67
2023/06/03 06:36:28;;;;;;;19.15;6.30;;;;;;;13.55;100.00;101989.06;5055068;28;20047;-67
2023/06/03 06:38:54;;;;;;;25.45;6.20;;;;;;;13.65;100.00;101982.09;5049332;28;20106;-67
2023/06/03 06:41:21;;;;;;;18.00;5.88;;;;;;;13.73;100.00;101983.94;5054650;28;20037;-69
2023/06/03 06:43:46;;;;;;;18.08;6.00;;;;;;;13.79;100.00;101988.41;5054633;28;20032;-67
2023/06/03 06:46:12;;;;;;;18.60;6.40;;;;;;;13.85;100.00;101988.47;5054815;28;20032;-63
2023/06/03 06:48:40;;;;;;;18.00;5.80;;;;;;;13.89;100.00;101989.38;5053656;28;20075;-64
2023/06/03 06:51:06;;;;;;;21.35;6.18;;;;;;;13.93;99.00;101985.88;5054832;28;20029;-63
2023/06/03 06:53:34;;;;;;;18.45;5.90;;;;;;;13.97;96.41;101985.03;5055150;28;20072;-65
2023/06/03 06:56:06;;;;;;;16.48;5.50;;;;;;;14.08;93.60;101986.00;5054650;28;20021;-67
2023/06/03 06:58:36;;;;;;;16.85;5.50;;;;;;;14.17;95.33;101984.28;5069930;28;20483;-79
2023/06/03 07:01:05;;;;;;;18.83;5.70;;;;;;;14.19;90.87;101996.72;5054559;28;20040;-81
2023/06/03 07:03:32;;;;;;;17.13;5.18;;;;;;;14.30;91.78;101987.03;5054796;28;20426;-78
2023/06/03 07:05:57;;;;;;;18.73;5.53;;;;;;;14.37;85.52;101992.41;5054284;28;20449;-71
2023/06/03 07:08:24;;;;;;;19.33;5.47;;;;;;;14.47;85.35;101994.25;5054422;28;20107;-79
2023/06/03 07:10:51;;;;;;;18.65;5.45;;;;;;;14.56;86.77;101985.44;5054369;28;20033;-82
2023/06/03 07:13:16;;;;;;;17.67;5.10;;;;;;;14.64;84.51;101986.41;5053990;28;20038;-82
2023/06/03 07:15:42;;;;;;;16.83;5.00;;;;;;;14.76;76.99;101985.56;5054320;28;20029;-76
2023/06/03 07:18:10;;;;;;;16.90;4.80;;;;;;;14.93;76.96;101986.53;5053978;28;20163;-81
2023/06/03 07:20:39;;;;;;;17.15;5.10;;;;;;;15.05;80.31;101988.38;5053939;28;20028;-81
2023/06/03 07:23:10;;;;;;;17.23;4.50;;;;;;;15.18;70.95;101986.63;5053975;28;20051;-81
2023/06/03 07:25:47;;;;;;;16.30;4.70;;;;;;;15.25;73.41;101985.78;5054145;28;20099;-80
2023/06/03 07:28:15;;;;;;;15.93;4.60;;;;;;;15.34;71.47;101987.56;5053840;28;20376;-75
2023/06/03 07:30:42;;;;;;;14.50;4.47;;;;;;;15.46;74.48;101992.91;5053993;28;20025;-82
2023/06/03 07:33:10;;;;;;;13.90;4.40;;;;;;;15.57;67.76;101987.63;5053630;28;20049;-82
2023/06/03 07:35:36;;;;;;;18.50;4.20;;;;;;;15.70;68.51;101993.88;5053876;28;20075;-79
2023/06/03 07:38:03;;;;;;;15.88;4.57;;;;;;;15.81;67.50;101991.25;5053783;28;20091;-69
2023/06/03 07:40:42;;;;;;;15.23;4.50;;;;;;;15.90;68.30;101980.59;5053781;28;20021;-77
2023/06/03 07:43:09;;;;;;;15.40;4.25;;;;;;;15.98;64.63;101978.81;5051409;28;20021;-67
2023/06/03 07:45:35;;;;;;;14.68;4.30;;;;;;;16.07;61.91;101972.56;5053707;28;20017;-76
2023/06/03 07:48:03;;;;;;;17.45;3.70;;;;;;;16.26;61.86;101983.25;5053387;28;20594;-76
2023/06/03 07:50:29;;;;;;;13.70;3.70;;;;;;;16.42;57.21;101982.31;5051004;28;20013;-75
2023/06/03 07:53:01;;;;;;;13.68;3.70;;;;;;;16.57;56.49;101986.72;5051643;28;20115;-78
2023/06/03 07:55:36;;;;;;;13.20;3.50;;;;;;;16.69;55.21;101986.69;5052747;28;20032;-70
2023/06/03 07:58:01;;;;;;;12.68;3.10;;;;;;;16.86;53.53;101978.66;5053060;28;20468;-70
2023/06/03 08:00:27;;;;;;;13.13;3.40;;;;;;;16.96;51.27;101990.19;5053722;28;20079;-74
2023/06/03 08:02:52;;;;;;;12.70;3.28;;;;;;;17.08;51.15;101992.81;5053180;28;20476;-69
2023/06/03 08:05:31;;;;;;;12.57;3.40;;;;;;;17.21;51.88;101995.41;5053221;28;20025;-70
2023/06/03 08:07:57;;;;;;;11.55;3.30;;;;;;;17.33;49.32;101990.03;5049740;28;20021;-71
2023/06/03 08:10:24;;;;;;;11.23;3.30;;;;;;;17.39;48.03;101992.66;5053156;28;20087;-71
2023/06/03 08:12:50;;;;;;;12.00;3.00;;;;;;;17.43;47.19;101989.06;5053237;28;20120;-64
2023/06/03 08:15:31;;;;;;;10.43;2.90;;;;;;;17.56;47.42;101988.97;5053130;28;20113;-68
2023/06/03 08:17:57;;;;;;;9.73;3.10;;;;;;;17.66;45.39;101989.81;5050752;28;20053;-66
2023/06/03 08:20:24;;;;;;;14.02;3.38;;;;;;;17.87;46.14;101989.66;5053156;28;20067;-65
2023/06/03 08:22:50;;;;;;;10.07;3.10;;;;;;;17.98;45.14;101986.91;5052928;28;20021;-65
2023/06/03 08:25:16;;;;;;;13.52;3.00;;;;;;;18.10;44.90;101985.91;5053338;28;20108;-63
2023/06/03 08:27:41;;;;;;;11.48;2.97;;;;;;;18.22;45.33;101985.81;5052748;28;20458;-64
2023/06/03 08:30:08;;;;;;;9.52;3.08;;;;;;;18.33;44.91;101991.06;5052731;28;20033;-64
2023/06/03 08:32:39;;;;;;;14.65;2.92;;;;;;;18.40;43.24;101984.75;5052804;28;20066;-69
2023/06/03 08:35:09;;;;;;;12.70;2.78;;;;;;;18.49;42.17;101973.06;5053043;28;20056;-66
2023/06/03 08:37:35;;;;;;;10.45;2.80;;;;;;;18.59;42.54;101981.88;5052580;28;20021;-68
2023/06/03 08:40:06;;;;;;;10.25;2.97;;;;;;;18.63;41.36;101975.59;5052892;28;20033;-76
2023/06/03 08:42:45;;;;;;;16.23;3.10;;;;;;;18.70;42.08;101979.06;5052702;28;20021;-65
2023/06/03 08:45:17;;;;;;;11.63;3.00;;;;;;;18.75;41.04;101986.16;5052830;28;20409;-66
2023/06/03 08:48:06;;;;;;;12.43;2.85;;;;;;;18.93;41.84;101977.06;5052502;28;20115;-63
2023/06/03 08:50:33;;;;;;;13.70;3.08;;;;;;;19.12;40.27;101980.38;5050845;28;20078;-64
2023/06/03 08:53:00;;;;;;;11.32;2.80;;;;;;;19.15;40.93;101979.47;5052309;28;20104;-70
2023/06/03 08:55:26;;;;;;;7.20;2.70;;;;;;;19.29;41.16;101976.56;5052039;28;20029;-67
2023/06/03 08:58:01;;;;;;;12.88;2.90;;;;;;;19.52;40.73;101981.59;5052384;28;20036;-64
2023/06/03 09:00:26;;;;;;;10.95;2.70;;;;;;;19.43;39.15;101979.94;5052424;28;20025;-69
2023/06/03 09:02:52;;;;;;;11.85;2.70;;;;;;;19.49;39.80;101984.31;5052583;28;20539;-64
2023/06/03 09:05:22;;;;;;;18.65;3.00;;;;;;;19.51;39.55;101982.50;5052418;28;20040;-63
2023/06/03 09:07:49;;;;;;;13.30;2.90;;;;;;;19.55;39.08;101980.69;5064274;28;20072;-69
2023/06/03 09:10:22;;;;;;;9.63;2.88;;;;;;;19.64;41.12;101983.19;5048708;28;20033;-70
2023/06/03 09:12:48;;;;;;;12.23;2.78;;;;;;;19.71;38.93;101974.16;5048817;28;20036;-70
2023/06/03 09:15:14;;;;;;;27.08;3.58;;;;;;;19.81;37.25;101958.84;5052244;28;20062;-70
2023/06/03 09:17:43;;;;;;;11.18;2.90;;;;;;;19.85;38.53;101974.84;5052428;28;20037;-70
2023/06/03 09:20:13;;;;;;;12.32;2.70;;;;;;;20.11;39.35;101976.22;5052427;28;20025;-70
2023/06/03 09:22:41;;;;;;;11.25;2.65;;;;;;;20.28;37.50;101977.69;5052218;28;20361;-70
2023/06/03 09:25:07;;;;;;;12.85;2.53;;;;;;;20.46;36.38;101973.78;5050929;28;20040;-70
2023/06/03 09:27:33;;;;;;;11.57;2.80;;;;;;;20.43;35.69;101982.78;5052119;28;20067;-70
2023/06/03 09:30:02;;;;;;;10.38;2.55;;;;;;;20.63;36.72;101976.13;5052168;28;20080;-70
2023/06/03 09:32:27;;;;;;;13.35;3.03;;;;;;;20.65;35.59;101968.91;5050364;28;20102;-73
2023/06/03 09:34:53;;;;;;;12.23;2.63;;;;;;;20.55;35.03;101958.38;5051987;28;20568;-70
2023/06/03 09:37:19;;;;;;;9.70;2.53;;;;;;;20.65;34.85;101983.25;5051002;28;20500;-71
2023/06/03 09:39:44;;;;;;;7.05;2.40;;;;;;;20.72;35.67;101973.28;5051980;28;20029;-70
2023/06/03 09:42:11;;;;;;;11.80;2.47;;;;;;;20.79;35.08;101980.31;5050988;28;20116;-69
2023/06/03 09:44:46;;;;;;;9.25;2.40;;;;;;;20.88;35.29;101982.81;5051984;28;20040;-70
2023/06/03 09:47:12;;;;;;;9.30;2.30;;;;;;;21.18;34.69;101968.75;5051894;28;20027;-70
2023/06/03 09:49:38;;;;;;;9.93;2.42;;;;;;;21.48;35.86;101972.56;5052094;28;20048;-69
2023/06/03 09:52:09;;;;;;;13.48;2.55;;;;;;;21.52;31.46;101974.28;5051777;28;20036;-70
2023/06/03 09:54:35;;;;;;;10.00;2.40;;;;;;;21.49;30.89;101979.69;5051866;28;20059;-69
2023/06/03 09:57:11;;;;;;;10.00;2.50;;;;;;;21.65;32.67;101982.91;5052206;28;20033;-70
2023/06/03 09:59:42;;;;;;;5.78;2.20;;;;;;;22.09;30.58;101980.03;5052025;28;20025;-69
2023/06/03 10:02:12;;;;;;;9.40;2.33;;;;;;;23.14;29.63;101990.66;5051840;28;20116;-75
2023/06/03 10:04:44;;;;;;;19.38;2.70;;;;;;;24.61;28.33;101991.22;5051835;28;20445;-76
2023/06/03 10:07:17;;;;;;;6.43;2.20;;;;;;;26.28;25.67;101985.50;5052607;28;20037;-71
2023/06/03 10:09:45;;;;;;;7.43;2.30;;;;;;;27.92;23.84;101999.59;5055616;28;20064;-68
2023/06/03 10:12:11;;;;;;;8.63;2.30;;;;;;;28.27;22.49;101989.63;5055201;28;20036;-64
2023/06/03 10:14:50;;;;;;;3.92;2.10;;;;;;;29.31;22.37;101981.34;5055364;28;20116;-67
2023/06/03 10:17:17;;;;;;;6.15;2.15;;;;;;;29.59;20.27;101988.81;5051320;28;20053;-69
2023/06/03 10:19:44;;;;;;;9.35;2.10;;;;;;;29.98;20.38;101976.50;5055474;28;20036;-68
2023/06/03 10:22:16;;;;;;;6.88;2.25;;;;;;;30.63;19.16;101988.94;5054626;28;20551;-68
2023/06/03 10:24:45;;;;;;;;;;;;;;;31.86;20.11;101980.06;5055340;28;20032;-68
2023/06/03 10:27:11;;;;;;;9.57;2.15;;;;;;;30.91;19.81;101979.88;5055300;28;19913;-68
2023/06/03 10:29:36;;;;;;;9.80;2.30;;;;;;;30.40;18.84;101974.00;5054930;28;20025;-68
2023/06/03 10:32:04;;;;;;;6.47;2.20;;;;;;;30.59;19.90;101974.63;5055127;28;20072;-69
2023/06/03 10:34:31;;;;;;;8.00;2.20;;;;;;;30.66;19.58;101971.53;5054873;28;20041;-66
2023/06/03 10:37:02;;;;;;;6.43;2.13;;;;;;;31.37;19.18;101967.84;5054910;28;20468;-68
2023/06/03 10:39:29;;;;;;;10.13;2.40;;;;;;;31.94;18.89;101980.44;5054921;28;20083;-66
2023/06/03 10:42:02;;;;;;;7.25;2.10;;;;;;;32.61;18.66;101975.84;5054886;28;20042;-65
2023/06/03 10:44:29;;;;;;;5.13;2.10;;;;;;;32.41;17.19;101975.38;5055018;28;20124;-68
2023/06/03 10:47:04;;;;;;;4.43;2.03;;;;;;;32.65;18.68;101971.88;5054532;28;20060;-66
2023/06/03 10:49:47;;;;;;;8.00;2.10;;;;;;;33.02;18.58;101972.84;5054611;28;20032;-69
2023/06/03 10:52:20;;;;;;;9.55;2.20;;;;;;;32.66;18.00;101969.06;5054523;28;20033;-67
2023/06/03 10:55:00;;;;;;;6.38;2.30;;;;;;;33.33;18.15;101967.88;5055066;28;20052;-68
2023/06/03 10:57:35;;;;;;;10.30;2.30;;;;;;;33.56;17.71;101965.25;5052198;28;20029;-69
2023/06/03 11:00:00;;;;;;;5.60;2.00;;;;;;;32.37;16.89;101967.50;5054531;28;20021;-67
2023/06/03 11:02:26;;;;;;;6.45;2.33;;;;;;;32.93;17.11;101969.94;5053158;28;20029;-64
2023/06/03 11:05:21;;;;;;;3.38;1.90;;;;;;;33.54;17.68;101969.97;5054421;28;20104;-68
2023/06/03 11:07:46;;;;;;;7.03;2.08;;;;;;;33.38;16.45;101972.09;5050430;28;20025;-65
2023/06/03 11:10:34;;;;;;;4.95;2.03;;;;;;;34.23;16.39;101963.78;5054349;28;20029;-64
2023/06/03 11:12:59;;;;;;;6.25;1.90;;;;;;;34.12;15.86;101961.88;5051913;28;20025;-67
2023/06/03 11:15:56;;;;;;;9.05;1.88;;;;;;;34.45;16.12;101964.84;5053994;28;20029;-67